• Join FlightAware (Why Join?)
  • Login
  • US Flag 
08:18PM EDT


 

Airport Tracker/Info


-or-


 

Live Flight TrackerFlight Track Log ✈ KAL823 ✈ 14-Nov-2013 ✈ RKSI / ICN - ZYMD / MDG

Flight Track Log - Related Links

Times and Time Zones

All times are in EST time to prevent confusion due to time zone crossing. See the KAL823 flight status page for this flight to view local times or setup timezone preferences in your user account.

Time Position Orientation Groundspeed Altitude Reporting Facility
EST Latitude Longitude Course Direction KTS MPH feet Rate Location/Type
08:32PM 37.5232 126.4719 17° North  Level Estimated
08:33PM 37.5773 126.4934 17° North  Level Estimated
08:34PM 37.6314 126.5149 17° North  Level Estimated
08:35PM 37.6855 126.5365 17° North  Level Estimated
08:36PM 37.7396 126.5580 17° North  Level Estimated
08:37PM 37.7937 126.5796 18° North  Level Estimated
08:38PM 37.8478 126.6012 18° North  Level Estimated
08:39PM 37.9019 126.6229 18° North  Level Estimated
08:40PM 37.9560 126.6446 18° North  Level Estimated
08:41PM 38.0122 126.6672 18° North  Level Estimated
08:42PM 38.0684 126.6898 18° North  Level Estimated
08:43PM 38.1247 126.7124 18° North  Level Estimated
08:44PM 38.1809 126.7351 18° North  Level Estimated
08:45PM 38.2371 126.7578 18° North  Level Estimated
08:46PM 38.2933 126.7806 18° North  Level Estimated
08:47PM 38.3495 126.8034 18° North  Level Estimated
08:47PM 37.2330 125.7970 18° North 346 398 21,600  Level FlightAware
08:48PM 38.4057 126.8262 18° North  Level Estimated
08:48PM 37.2380 125.7560 279° West 346 398 21,600  Level FlightAware
08:49PM 38.4628 126.8494 18° North  Level Estimated
08:49PM 37.2550 125.6350 280° West 346 398 21,600  Level FlightAware
08:49PM 37.2580 125.6150 281° West 346 398 21,600  Level FlightAware
08:50PM 37.2720 125.5140 280° West 346 398 21,600  Level FlightAware
08:51PM 37.2810 125.4530 281° West 346 398 21,600  Level FlightAware
08:54PM 37.4283 125.5276 22° Northeast  Level Estimated
08:55PM 37.4839 125.5559 22° Northeast  Level Estimated
08:56PM 37.5395 125.5842 22° Northeast  Level Estimated
08:57PM 37.5950 125.6125 22° Northeast  Level Estimated
08:58PM 37.6506 125.6409 22° Northeast  Level Estimated
08:59PM 37.7061 125.6693 22° Northeast  Level Estimated
09:00PM 37.7617 125.6977 22° Northeast  Level Estimated
09:01PM 37.8172 125.7262 22° Northeast  Level Estimated
09:02PM 37.8727 125.7548 22° Northeast  Level Estimated
09:03PM 37.9283 125.7834 22° Northeast  Level Estimated
09:04PM 37.9838 125.8120 22° Northeast  Level Estimated
09:05PM 38.0393 125.8407 22° Northeast  Level Estimated
09:06PM 38.0948 125.8694 22° Northeast  Level Estimated
09:07PM 38.1503 125.8981 22° Northeast  Level Estimated
09:08PM 38.2058 125.9269 22° Northeast  Level Estimated
09:09PM 38.2612 125.9558 22° Northeast  Level Estimated
09:10PM 38.3167 125.9847 22° Northeast  Level Estimated
09:11PM 38.3722 126.0136 22° Northeast  Level Estimated
09:12PM 38.4268 126.0421 22° Northeast  Level Estimated
09:13PM 38.4813 126.0707 22° Northeast  Level Estimated
09:14PM 38.5359 126.0993 22° Northeast  Level Estimated
09:15PM 38.5905 126.1279 22° Northeast  Level Estimated
09:16PM 38.6450 126.1566 22° Northeast  Level Estimated
09:17PM 38.6996 126.1854 22° Northeast  Level Estimated
09:18PM 38.7541 126.2141 22° Northeast  Level Estimated
09:19PM 38.8086 126.2430 22° Northeast  Level Estimated
09:20PM 38.8632 126.2718 22° Northeast  Level Estimated
09:21PM 38.9177 126.3007 22° Northeast  Level Estimated
09:22PM 38.9722 126.3297 22° Northeast  Level Estimated
09:23PM 39.0267 126.3587 22° Northeast  Level Estimated
09:24PM 39.0812 126.3877 22° Northeast  Level Estimated
09:25PM 39.1357 126.4168 22° Northeast  Level Estimated
09:26PM 39.1901 126.4460 23° Northeast  Level Estimated
09:27PM 39.2446 126.4752 23° Northeast  Level Estimated
09:28PM 39.2991 126.5044 23° Northeast  Level Estimated
09:29PM 39.3535 126.5337 23° Northeast  Level Estimated
09:30PM 39.4080 126.5630 23° Northeast  Level Estimated
09:31PM 39.4624 126.5923 23° Northeast  Level Estimated
09:32PM 39.5169 126.6217 23° Northeast  Level Estimated
09:33PM 39.5713 126.6512 23° Northeast  Level Estimated
09:34PM 39.6257 126.6807 23° Northeast  Level Estimated
09:35PM 39.6801 126.7103 23° Northeast  Level Estimated
09:36PM 39.7345 126.7399 23° Northeast  Level Estimated
09:37PM 39.7889 126.7695 23° Northeast  Level Estimated
09:38PM 39.8433 126.7992 23° Northeast  Level Estimated
09:39PM 39.8977 126.8289 23° Northeast  Level Estimated
09:40PM 39.9521 126.8587 23° Northeast  Level Estimated
09:41PM 40.0065 126.8885 23° Northeast  Level Estimated
09:42PM 40.0608 126.9184 23° Northeast  Level Estimated
09:43PM 40.1152 126.9483 23° Northeast  Level Estimated
09:44PM 40.1695 126.9783 23° Northeast  Level Estimated
09:45PM 40.2239 127.0083 23° Northeast  Level Estimated
09:46PM 40.2782 127.0384 23° Northeast  Level Estimated
09:47PM 40.3325 127.0685 23° Northeast  Level Estimated
09:48PM 40.3868 127.0987 23° Northeast  Level Estimated
09:49PM 40.4411 127.1289 23° Northeast  Level Estimated
09:50PM 40.4954 127.1592 23° Northeast  Level Estimated
09:51PM 40.5497 127.1895 23° Northeast  Level Estimated
09:52PM 40.6040 127.2198 23° Northeast  Level Estimated
09:53PM 40.6583 127.2502 23° Northeast  Level Estimated
09:54PM 40.7125 127.2807 23° Northeast  Level Estimated
09:55PM 40.7668 127.3112 23° Northeast  Level Estimated
09:56PM 40.8210 127.3418 23° Northeast  Level Estimated
09:57PM 40.8753 127.3724 23° Northeast  Level Estimated
09:58PM 40.9295 127.4030 23° Northeast  Level Estimated
09:59PM 40.9837 127.4337 23° Northeast  Level Estimated
10:00PM 41.0380 127.4645 23° Northeast  Level Estimated
10:01PM 41.0922 127.4953 23° Northeast  Level Estimated
10:02PM 41.1464 127.5262 23° Northeast  Level Estimated
10:03PM 41.2006 127.5571 23° Northeast  Level Estimated
10:04PM 41.2548 127.5881 23° Northeast  Level Estimated
10:05PM 41.3089 127.6191 23° Northeast  Level Estimated
10:06PM 41.3631 127.6501 23° Northeast  Level Estimated
10:07PM 41.4173 127.6813 23° Northeast  Level Estimated
10:08PM 41.4714 127.7124 23° Northeast  Level Estimated
10:09PM 41.5256 127.7437 23° Northeast  Level Estimated
10:10PM 41.5797 127.7749 23° Northeast  Level Estimated
10:11PM 41.6338 127.8063 23° Northeast  Level Estimated
10:12PM 41.6879 127.8376 23° Northeast  Level Estimated
10:13PM 41.7421 127.8691 23° Northeast  Level Estimated
10:14PM 41.7962 127.9006 23° Northeast  Level Estimated
10:15PM 41.8502 127.9321 23° Northeast  Level Estimated
10:16PM 41.9043 127.9637 23° Northeast  Level Estimated
10:17PM 41.9584 127.9954 24° Northeast  Level Estimated
10:18PM 42.0125 128.0271 24° Northeast  Level Estimated
10:19PM 42.0665 128.0588 24° Northeast  Level Estimated
10:20PM 42.1206 128.0906 24° Northeast  Level Estimated
10:21PM 42.1746 128.1225 24° Northeast  Level Estimated
10:22PM 42.2286 128.1544 24° Northeast  Level Estimated
10:23PM 42.2827 128.1864 24° Northeast  Level Estimated
10:24PM 42.3367 128.2184 24° Northeast  Level Estimated
10:25PM 42.3907 128.2505 24° Northeast  Level Estimated
10:26PM 42.4447 128.2826 24° Northeast  Level Estimated
10:27PM 42.4987 128.3148 24° Northeast  Level Estimated
10:28PM 42.5526 128.3471 24° Northeast  Level Estimated
10:29PM 42.6066 128.3794 24° Northeast  Level Estimated
10:30PM 42.6606 128.4117 24° Northeast  Level Estimated
10:31PM 42.7145 128.4442 24° Northeast  Level Estimated
10:32PM 42.7685 128.4766 24° Northeast  Level Estimated
10:33PM 42.8224 128.5092 24° Northeast  Level Estimated
10:34PM 42.8763 128.5417 24° Northeast  Level Estimated
10:35PM 42.9302 128.5744 24° Northeast  Level Estimated
10:36PM 42.9841 128.6071 24° Northeast  Level Estimated
10:37PM 43.0380 128.6398 24° Northeast  Level Estimated
10:38PM 43.0919 128.6727 24° Northeast  Level Estimated
10:39PM 43.1458 128.7055 24° Northeast  Level Estimated
10:40PM 43.1996 128.7385 24° Northeast  Level Estimated
10:41PM 43.2535 128.7715 24° Northeast  Level Estimated
10:42PM 43.3074 128.8045 24° Northeast  Level Estimated
10:43PM 43.3612 128.8376 24° Northeast  Level Estimated
10:44PM 43.4150 128.8708 24° Northeast  Level Estimated
10:45PM 43.4688 128.9040 24° Northeast  Level Estimated
10:46PM 43.5227 128.9373 24° Northeast  Level Estimated
10:47PM 43.5765 128.9706 24° Northeast  Level Estimated
10:48PM 43.6302 129.0040 24° Northeast  Level Estimated
10:49PM 43.6840 129.0375 24° Northeast  Level Estimated
10:50PM 43.7378 129.0710 24° Northeast  Level Estimated
10:51PM 43.7916 129.1046 24° Northeast  Level Estimated
10:52PM 43.8453 129.1382 24° Northeast  Level Estimated
10:53PM 43.8991 129.1720 24° Northeast  Level Estimated
10:54PM 43.9528 129.2057 24° Northeast  Level Estimated
10:55PM 44.0065 129.2396 24° Northeast  Level Estimated
10:56PM 44.0602 129.2735 24° Northeast  Level Estimated
10:57PM 44.1139 129.3074 24° Northeast  Level Estimated
10:58PM 44.1676 129.3414 24° Northeast  Level Estimated
10:59PM 44.2213 129.3755 24° Northeast  Level Estimated
11:00PM 44.2749 129.4096 24° Northeast  Level Estimated